Time;durP1;ratioP1;P1;durP2;ratioP2;P2;SDS_P1;SDS_P2;PMS_P1;PMS_P2;Temp;Humidity;BMP_temperature;BMP_pressure;BME280_temperature;BME280_humidity;BME280_pressure;Samples;Min_cycle;Max_cycle;Signal;HPM_P1;HPM_P2
2023/05/21 00:02:22;;;;;;;5.40;3.20;;;18.30;96.70;;;;;;4956473;28;20054;-71
2023/05/21 00:04:52;;;;;;;4.63;2.80;;;18.30;96.70;;;;;;4945826;28;20094;-71
2023/05/21 00:07:22;;;;;;;4.32;2.95;;;18.30;96.70;;;;;;4964102;28;20039;-71
2023/05/21 00:09:51;;;;;;;3.85;2.70;;;18.30;96.70;;;;;;4949122;28;20058;-71
2023/05/21 00:12:20;;;;;;;3.15;2.55;;;18.30;96.70;;;;;;4947069;28;20062;-71
2023/05/21 00:14:48;;;;;;;5.07;3.15;;;18.20;96.70;;;;;;4948536;28;20043;-71
2023/05/21 00:17:16;;;;;;;3.92;2.63;;;18.20;96.70;;;;;;4944249;28;20063;-70
2023/05/21 00:19:45;;;;;;;3.35;2.63;;;18.30;96.70;;;;;;4963868;28;20484;-70
2023/05/21 00:22:15;;;;;;;4.50;3.00;;;18.30;96.70;;;;;;4963504;28;20054;-70
2023/05/21 00:24:44;;;;;;;3.22;2.55;;;18.30;96.70;;;;;;4951231;28;20038;-71
2023/05/21 00:27:13;;;;;;;4.13;2.63;;;18.30;96.70;;;;;;4945832;28;20047;-70
2023/05/21 00:29:42;;;;;;;3.63;2.72;;;18.30;96.70;;;;;;4945492;28;20054;-70
2023/05/21 00:32:11;;;;;;;4.10;2.58;;;18.30;96.70;;;;;;4964715;28;20498;-70
2023/05/21 00:34:40;;;;;;;6.28;2.83;;;18.30;96.70;;;;;;4954830;28;20047;-70
2023/05/21 00:37:08;;;;;;;3.75;2.63;;;18.30;96.70;;;;;;4963896;28;20109;-70
2023/05/21 00:39:38;;;;;;;3.97;2.20;;;18.30;96.70;;;;;;4965231;28;20053;-71
2023/05/21 01:28:34;;;;;;;3.15;2.30;;;18.30;96.70;;;;;;4959590;28;20062;-70
2023/05/21 01:31:11;;;;;;;2.72;2.40;;;18.30;96.70;;;;;;4943224;28;20105;-70
2023/05/21 01:33:46;;;;;;;4.30;2.50;;;18.30;96.70;;;;;;4951234;28;20066;-70
2023/05/21 02:22:32;;;;;;;4.10;2.30;;;18.20;96.70;;;;;;4965840;28;20134;-70
2023/05/21 02:25:03;;;;;;;9.80;2.80;;;18.20;96.70;;;;;;4968607;28;20121;-71
2023/05/21 02:27:33;;;;;;;2.75;2.00;;;18.20;96.70;;;;;;4974150;28;20108;-69
2023/05/21 02:30:03;;;;;;;5.80;2.47;;;18.20;96.70;;;;;;4966394;28;20412;-69
2023/05/21 02:32:33;;;;;;;2.53;2.30;;;18.20;96.70;;;;;;4967802;28;20047;-70
2023/05/21 02:35:06;;;;;;;4.68;2.50;;;18.20;96.70;;;;;;4951370;28;20149;-69
2023/05/21 02:37:36;;;;;;;3.63;2.45;;;18.20;96.70;;;;;;4953512;28;20034;-70
2023/05/21 02:40:09;;;;;;;4.25;2.55;;;18.20;96.70;;;;;;4955421;28;20073;-69
2023/05/21 02:42:38;;;;;;;3.22;2.42;;;18.20;96.70;;;;;;4948826;28;20114;-69
2023/05/21 02:45:11;;;;;;;3.88;2.50;;;18.20;96.70;;;;;;4938147;28;20046;-70
2023/05/21 02:47:42;;;;;;;5.72;2.85;;;18.20;96.70;;;;;;4964907;28;20050;-70
2023/05/21 02:50:12;;;;;;;3.58;2.50;;;18.20;96.70;;;;;;4968823;28;20191;-69
2023/05/21 02:52:48;;;;;;;5.00;3.03;;;18.20;96.70;;;;;;4969854;28;20089;-70
2023/05/21 02:55:17;;;;;;;3.83;2.92;;;18.20;96.70;;;;;;4967891;28;20047;-69
2023/05/21 02:57:45;;;;;;;2.97;2.53;;;18.20;96.70;;;;;;4961344;28;20048;-69
2023/05/21 03:00:15;;;;;;;3.65;2.40;;;18.20;96.70;;;;;;4960827;28;20046;-70
2023/05/21 03:02:44;;;;;;;3.03;2.20;;;18.20;96.70;;;;;;4956165;28;20047;-69
2023/05/21 03:05:13;;;;;;;3.60;2.95;;;18.20;96.70;;;;;;4971057;28;20081;-69
2023/05/21 03:07:42;;;;;;;4.10;2.80;;;18.20;96.70;;;;;;4960394;28;20043;-70
2023/05/21 03:10:12;;;;;;;4.60;2.85;;;18.20;96.70;;;;;;4970260;28;20052;-69
2023/05/21 03:12:40;;;;;;;3.53;2.58;;;18.20;96.70;;;;;;4966128;28;20169;-69
2023/05/21 03:15:10;;;;;;;5.07;3.00;;;18.10;96.70;;;;;;4936145;28;20047;-69
2023/05/21 03:17:38;;;;;;;3.58;2.90;;;18.10;96.70;;;;;;4951446;28;20078;-69
2023/05/21 03:20:14;;;;;;;6.35;3.40;;;18.10;96.70;;;;;;4951576;28;20047;-70
2023/05/21 04:18:50;;;;;;;5.30;3.90;;;17.90;96.70;;;;;;4935772;28;20046;-69
2023/05/21 04:21:21;;;;;;;5.18;3.63;;;18.00;96.70;;;;;;4942272;29;20050;-69
2023/05/21 04:23:49;;;;;;;5.72;4.05;;;18.00;96.70;;;;;;4937091;29;20482;-70
2023/05/21 04:26:26;;;;;;;7.07;3.90;;;18.00;96.70;;;;;;4942305;28;20050;-69
2023/05/21 04:54:48;;;;;;;6.40;4.30;;;18.20;96.70;;;;;;4943060;29;20082;-70
2023/05/21 04:57:17;;;;;;;6.28;4.30;;;18.20;96.70;;;;;;4936987;29;20051;-69
2023/05/21 04:59:46;;;;;;;7.75;4.20;;;18.20;96.70;;;;;;4944772;28;20134;-69
2023/05/21 05:02:15;;;;;;;6.90;4.35;;;18.20;96.70;;;;;;4942500;29;20170;-70
2023/05/21 05:04:43;;;;;;;6.20;4.43;;;18.30;96.70;;;;;;4943913;28;20039;-69
2023/05/21 05:07:13;;;;;;;4.65;4.15;;;18.30;96.70;;;;;;4957216;28;20118;-71
2023/05/21 05:09:43;;;;;;;8.63;4.30;;;18.30;96.70;;;;;;4940861;29;20049;-71
2023/05/21 05:12:12;;;;;;;6.28;5.03;;;18.30;96.70;;;;;;4958593;28;20050;-71
2023/05/21 05:14:41;;;;;;;7.47;5.10;;;18.40;96.70;;;;;;4943603;28;20139;-71
2023/05/21 05:17:13;;;;;;;5.80;5.18;;;18.40;96.70;;;;;;4946616;28;20049;-71
2023/05/21 05:19:43;;;;;;;6.90;4.90;;;18.40;96.70;;;;;;4935484;29;20485;-71
2023/05/21 05:22:11;;;;;;;6.78;5.20;;;18.50;96.70;;;;;;4923746;29;20197;-71
2023/05/21 05:24:41;;;;;;;6.95;5.57;;;18.50;96.70;;;;;;4938495;28;20175;-71
2023/05/21 05:27:10;;;;;;;7.93;6.07;;;18.50;96.70;;;;;;4928707;28;20055;-71
2023/05/21 05:29:40;;;;;;;6.63;5.95;;;18.60;96.70;;;;;;4922911;29;20562;-71
2023/05/21 05:32:08;;;;;;;9.70;7.43;;;18.60;96.70;;;;;;4935344;28;20043;-70
2023/05/21 05:34:37;;;;;;;7.85;6.93;;;18.70;96.70;;;;;;4923039;29;20047;-72
2023/05/21 05:37:06;;;;;;;10.15;7.30;;;18.70;96.70;;;;;;4906562;29;20052;-71
2023/05/21 05:39:34;;;;;;;10.50;7.38;;;18.80;96.70;;;;;;4922953;29;20062;-71
2023/05/21 05:42:03;;;;;;;8.70;7.85;;;18.90;96.70;;;;;;4937432;28;21069;-71
2023/05/21 05:44:32;;;;;;;10.23;7.72;;;19.00;96.70;;;;;;4929096;29;20742;-72
2023/05/21 05:47:07;;;;;;;8.00;6.97;;;19.20;96.70;;;;;;4921880;29;20138;-71
2023/05/21 05:49:38;;;;;;;11.18;8.40;;;19.30;96.70;;;;;;4923752;29;20509;-71
2023/05/21 05:52:06;;;;;;;10.07;8.25;;;19.50;96.70;;;;;;4938668;28;20047;-71
2023/05/21 05:54:34;;;;;;;8.65;7.85;;;19.60;96.70;;;;;;4908407;29;20047;-71
2023/05/21 05:57:03;;;;;;;9.50;8.18;;;19.60;96.70;;;;;;4927837;29;20346;-71
2023/05/21 05:59:32;;;;;;;9.57;8.30;;;19.70;96.70;;;;;;4923691;29;20066;-71
2023/05/21 06:02:03;;;;;;;9.85;8.80;;;19.80;96.70;;;;;;4910054;29;20048;-71
2023/05/21 06:04:32;;;;;;;10.05;8.52;;;19.90;96.70;;;;;;4916000;29;20549;-70
2023/05/21 06:07:00;;;;;;;10.98;9.88;;;20.00;96.70;;;;;;4934080;28;20477;-71
2023/05/21 06:09:29;;;;;;;10.82;9.82;;;20.10;96.70;;;;;;4926280;29;20561;-71
2023/05/21 06:11:57;;;;;;;11.68;9.88;;;20.20;96.70;;;;;;4923361;29;20040;-70
2023/05/21 06:14:26;;;;;;;10.75;9.18;;;20.30;96.70;;;;;;4903358;29;20052;-71
2023/05/21 06:16:54;;;;;;;11.32;10.23;;;20.40;96.70;;;;;;4923742;29;20063;-71
2023/05/21 06:19:24;;;;;;;11.68;10.57;;;20.40;96.70;;;;;;4941508;28;20063;-71
2023/05/21 06:21:53;;;;;;;12.75;10.70;;;20.50;96.70;;;;;;4927350;28;20049;-70
2023/05/21 06:24:21;;;;;;;14.15;10.60;;;20.60;96.70;;;;;;4943295;28;20461;-71
2023/05/21 06:26:50;;;;;;;12.27;10.35;;;20.70;96.70;;;;;;4944357;28;20047;-71
2023/05/21 06:29:19;;;;;;;12.25;10.98;;;20.70;96.70;;;;;;4919670;28;20045;-71
2023/05/21 06:31:47;;;;;;;11.80;10.60;;;20.70;96.70;;;;;;4957258;28;20150;-71
2023/05/21 06:34:16;;;;;;;12.35;11.15;;;20.80;96.70;;;;;;4953867;28;20386;-71
2023/05/21 06:36:47;;;;;;;12.77;11.48;;;20.90;96.70;;;;;;4941791;28;20043;-72
2023/05/21 06:39:15;;;;;;;11.30;10.10;;;21.00;96.70;;;;;;4959049;28;20497;-71
2023/05/21 06:41:44;;;;;;;11.90;10.68;;;21.10;96.70;;;;;;4956709;28;20503;-72
2023/05/21 06:44:38;;;;;;;12.40;11.10;;;21.20;96.70;;;;;;4945355;28;20134;-71
2023/05/21 06:47:22;;;;;;;12.27;11.07;;;21.40;96.70;;;;;;4929107;29;20158;-71
2023/05/21 06:49:51;;;;;;;10.90;9.93;;;21.50;96.70;;;;;;4947256;28;20055;-71
2023/05/21 06:52:20;;;;;;;11.73;10.63;;;21.60;96.70;;;;;;4957514;28;20085;-71
2023/05/21 06:54:49;;;;;;;11.48;10.27;;;21.60;96.70;;;;;;4941018;28;20069;-71
2023/05/21 06:57:19;;;;;;;12.40;10.90;;;21.80;96.70;;;;;;4944330;28;20035;-71
2023/05/21 06:59:47;;;;;;;12.95;10.60;;;21.80;96.70;;;;;;4927398;28;20171;-71
2023/05/21 07:02:16;;;;;;;11.90;10.30;;;21.90;96.70;;;;;;4944666;28;20520;-71
2023/05/21 07:04:44;;;;;;;11.85;10.68;;;21.90;96.70;;;;;;4944997;28;20117;-71
2023/05/21 07:07:13;;;;;;;11.57;10.55;;;21.90;96.70;;;;;;4946551;28;20039;-71
2023/05/21 07:09:43;;;;;;;11.88;10.77;;;21.90;96.70;;;;;;4945299;28;20047;-72
2023/05/21 07:12:11;;;;;;;11.68;10.57;;;21.90;96.70;;;;;;4936658;28;20083;-71
2023/05/21 07:14:40;;;;;;;11.18;10.07;;;21.90;96.70;;;;;;4945794;28;20549;-71
2023/05/21 07:17:08;;;;;;;12.20;10.90;;;22.00;96.70;;;;;;4925740;28;20521;-72
2023/05/21 07:19:37;;;;;;;11.32;10.13;;;22.00;96.70;;;;;;4929677;28;20066;-71
2023/05/21 07:22:06;;;;;;;11.18;10.07;;;22.00;96.70;;;;;;4923776;29;20458;-71
2023/05/21 07:24:34;;;;;;;12.07;10.55;;;22.00;96.70;;;;;;4945736;28;20079;-72
2023/05/21 07:27:05;;;;;;;11.50;10.40;;;22.10;96.70;;;;;;4943557;28;20060;-73
2023/05/21 07:29:52;;;;;;;11.43;10.30;;;22.20;96.70;;;;;;4962525;28;20051;-74
2023/05/21 07:32:21;;;;;;;11.50;10.35;;;22.30;96.70;;;;;;4945736;28;20043;-73
2023/05/21 07:34:50;;;;;;;13.77;12.35;;;22.30;96.70;;;;;;4944992;28;20047;-72
2023/05/21 07:37:26;;;;;;;11.40;10.23;;;22.40;96.70;;;;;;4951650;28;20118;-73
2023/05/21 07:39:57;;;;;;;11.60;10.50;;;22.60;96.70;;;;;;4953840;28;20678;-72
2023/05/21 07:42:27;;;;;;;11.38;10.30;;;22.70;96.70;;;;;;4930458;29;20126;-73
2023/05/21 07:44:56;;;;;;;10.82;9.70;;;22.60;96.70;;;;;;4934834;29;20046;-72
2023/05/21 07:47:26;;;;;;;11.40;10.25;;;22.50;96.70;;;;;;4945436;28;20047;-72
2023/05/21 07:49:57;;;;;;;11.82;10.73;;;22.50;96.70;;;;;;4946411;28;20075;-72
2023/05/21 07:52:27;;;;;;;12.30;10.20;;;22.50;96.70;;;;;;4930321;28;21154;-72
2023/05/21 07:54:55;;;;;;;11.60;10.52;;;22.60;96.70;;;;;;4950853;28;20110;-71
2023/05/21 07:57:27;;;;;;;11.38;10.18;;;22.70;96.70;;;;;;4945580;28;20043;-71
2023/05/21 08:00:02;;;;;;;11.82;10.50;;;22.70;96.70;;;;;;4946670;28;20124;-71
2023/05/21 08:02:41;;;;;;;10.68;9.63;;;22.80;96.70;;;;;;4945730;28;20449;-71
2023/05/21 08:05:12;;;;;;;11.35;10.07;;;22.80;96.70;;;;;;4928707;29;20047;-72
2023/05/21 08:07:41;;;;;;;11.02;9.93;;;22.70;96.70;;;;;;4941951;28;20138;-72
2023/05/21 08:10:10;;;;;;;13.00;10.30;;;22.70;96.70;;;;;;4954433;28;20137;-72
2023/05/21 08:12:41;;;;;;;10.68;9.65;;;22.60;96.70;;;;;;4953392;28;20051;-73
2023/05/21 08:15:10;;;;;;;10.50;9.40;;;22.60;96.70;;;;;;4964466;28;21154;-70
2023/05/21 08:17:43;;;;;;;11.05;9.98;;;22.50;96.70;;;;;;4941519;28;20048;-72
2023/05/21 08:20:13;;;;;;;11.90;10.63;;;22.40;96.70;;;;;;4938654;28;20059;-72
2023/05/21 08:22:44;;;;;;;12.43;10.20;;;22.40;96.70;;;;;;4934286;29;20556;-71
2023/05/21 08:25:13;;;;;;;11.13;9.95;;;22.60;96.70;;;;;;4940010;28;20138;-71
2023/05/21 08:27:43;;;;;;;11.95;10.85;;;22.70;96.70;;;;;;4924229;29;20076;-70
2023/05/21 08:30:12;;;;;;;10.60;9.55;;;22.90;96.70;;;;;;4944999;28;20071;-70
2023/05/21 08:32:40;;;;;;;10.80;9.55;;;23.00;96.70;;;;;;4944491;28;20044;-69
2023/05/21 08:35:10;;;;;;;10.68;9.68;;;22.90;96.70;;;;;;4931727;29;20057;-71
2023/05/21 08:38:08;;;;;;;9.95;9.02;;;22.90;96.70;;;;;;4919481;29;20136;-69
2023/05/21 08:40:54;;;;;;;10.27;9.30;;;23.00;96.70;;;;;;4938033;29;20145;-70
2023/05/21 08:43:27;;;;;;;10.75;9.60;;;23.10;96.70;;;;;;4917154;29;20054;-71
2023/05/21 08:45:59;;;;;;;11.07;9.50;;;23.20;96.70;;;;;;4916879;29;20102;-71
2023/05/21 08:48:31;;;;;;;9.77;8.77;;;23.40;96.70;;;;;;4930635;29;20703;-70
2023/05/21 08:51:00;;;;;;;9.48;8.57;;;23.30;96.70;;;;;;4947909;28;20425;-71
2023/05/21 08:53:36;;;;;;;10.10;9.10;;;23.30;96.70;;;;;;4935990;29;20537;-70
2023/05/21 08:56:08;;;;;;;10.43;8.68;;;23.40;96.70;;;;;;4940189;28;20078;-70
2023/05/21 08:58:45;;;;;;;9.23;8.38;;;23.30;96.70;;;;;;4931497;28;20055;-69
2023/05/21 09:01:18;;;;;;;10.40;9.05;;;23.50;96.70;;;;;;4929895;29;20051;-70
2023/05/21 09:03:55;;;;;;;9.77;8.85;;;23.70;96.70;;;;;;4928752;29;20757;-70
2023/05/21 09:06:36;;;;;;;10.25;9.23;;;23.80;96.70;;;;;;4928417;29;20048;-71
2023/05/21 09:09:13;;;;;;;10.65;9.55;;;23.80;96.70;;;;;;4920625;29;20043;-70
2023/05/21 09:11:46;;;;;;;9.60;8.52;;;23.80;96.70;;;;;;4919034;29;20070;-69
2023/05/21 09:14:17;;;;;;;11.07;9.25;;;23.90;96.70;;;;;;4925438;29;20076;-69
2023/05/21 09:17:15;;;;;;;9.80;8.90;;;24.00;96.70;;;;;;4913510;29;20432;-68
2023/05/21 09:20:16;;;;;;;9.27;8.48;;;23.90;96.70;;;;;;4899507;29;20580;-69
2023/05/21 09:22:54;;;;;;;9.73;8.75;;;24.10;96.70;;;;;;4893204;29;20375;-68
2023/05/21 09:25:27;;;;;;;9.63;8.68;;;24.30;96.70;;;;;;4909900;29;20048;-69
2023/05/21 09:27:59;;;;;;;9.40;8.45;;;24.40;96.70;;;;;;4896893;29;20138;-69
2023/05/21 09:30:29;;;;;;;9.93;8.93;;;24.60;96.70;;;;;;4899444;29;20146;-70
2023/05/21 09:33:02;;;;;;;10.40;8.63;;;24.60;96.70;;;;;;4900483;29;20058;-69
2023/05/21 09:35:33;;;;;;;10.70;8.75;;;24.40;96.70;;;;;;4890066;29;20064;-71
2023/05/21 09:38:08;;;;;;;9.48;8.55;;;24.10;96.70;;;;;;4903740;29;20059;-70
2023/05/21 09:40:49;;;;;;;10.95;8.75;;;24.10;96.70;;;;;;4895350;29;20080;-69
2023/05/21 09:43:24;;;;;;;8.35;7.65;;;24.10;96.70;;;;;;4888429;29;20102;-69
2023/05/21 09:45:55;;;;;;;8.98;8.18;;;24.10;96.70;;;;;;4893326;29;20048;-69
2023/05/21 09:48:34;;;;;;;10.18;8.00;;;23.80;96.70;;;;;;4899828;29;20707;-69
2023/05/21 09:51:11;;;;;;;8.57;7.78;;;23.90;96.70;;;;;;4899454;29;20043;-69
2023/05/21 09:53:53;;;;;;;8.93;8.02;;;23.90;96.70;;;;;;4923774;28;20055;-69
2023/05/21 09:56:23;;;;;;;9.30;8.30;;;24.10;96.70;;;;;;4942373;28;20067;-69
2023/05/21 09:58:53;;;;;;;8.77;7.97;;;23.90;96.70;;;;;;4949888;28;20351;-70
2023/05/21 10:01:23;;;;;;;8.73;7.82;;;24.00;96.70;;;;;;4941500;28;20147;-69
2023/05/21 10:03:57;;;;;;;8.05;7.35;;;24.10;96.70;;;;;;4956569;28;20138;-69
2023/05/21 10:06:27;;;;;;;8.52;7.75;;;24.30;96.70;;;;;;4941785;28;20043;-69
2023/05/21 10:08:58;;;;;;;8.07;7.32;;;24.70;96.70;;;;;;4940758;28;20064;-70
2023/05/21 10:11:29;;;;;;;7.80;7.10;;;25.00;96.70;;;;;;4943489;28;20070;-70
2023/05/21 10:14:04;;;;;;;8.60;7.63;;;25.20;96.70;;;;;;4944398;28;20051;-71
2023/05/21 10:16:35;;;;;;;8.43;7.72;;;25.30;96.70;;;;;;4944201;28;20051;-70
2023/05/21 10:19:04;;;;;;;9.18;7.63;;;25.40;96.70;;;;;;4945687;28;20051;-70
2023/05/21 10:21:33;;;;;;;8.40;7.60;;;25.40;96.70;;;;;;4963468;28;20039;-70
2023/05/21 10:24:03;;;;;;;8.63;7.82;;;25.50;96.70;;;;;;4964352;28;20046;-70
2023/05/21 10:26:31;;;;;;;9.57;7.55;;;25.50;96.70;;;;;;4963586;28;20088;-72
2023/05/21 10:29:01;;;;;;;8.48;7.68;;;25.70;96.70;;;;;;4963585;28;20057;-70
2023/05/21 10:31:31;;;;;;;9.63;8.25;;;25.70;96.70;;;;;;4957950;28;20054;-69
2023/05/21 10:34:05;;;;;;;9.10;8.20;;;25.70;96.70;;;;;;4969875;28;20527;-69
2023/05/21 10:36:34;;;;;;;9.50;8.50;;;25.50;96.70;;;;;;4976777;28;20047;-69
2023/05/21 10:39:03;;;;;;;9.77;8.45;;;25.60;96.70;;;;;;4967241;28;20086;-69
2023/05/21 10:41:42;;;;;;;8.70;7.72;;;25.60;96.70;;;;;;4967670;28;20046;-69
2023/05/21 10:44:19;;;;;;;8.93;8.13;;;25.50;96.70;;;;;;4968440;28;20535;-69
2023/05/21 10:47:27;;;;;;;9.43;8.38;;;25.70;96.70;;;;;;4971955;28;20622;-69
2023/05/21 10:50:13;;;;;;;8.43;7.72;;;25.70;96.70;;;;;;4950662;28;20054;-69
2023/05/21 10:52:56;;;;;;;9.18;7.88;;;25.80;96.70;;;;;;4977178;28;20620;-69
2023/05/21 10:55:40;;;;;;;8.57;7.68;;;25.80;96.70;;;;;;4961175;28;20129;-69
2023/05/21 10:58:36;;;;;;;9.43;8.52;;;25.80;96.70;;;;;;4968092;28;20699;-69
2023/05/21 11:01:05;;;;;;;7.82;7.00;;;25.80;96.70;;;;;;4954712;28;20054;-70
2023/05/21 11:03:35;;;;;;;8.10;7.40;;;25.50;96.70;;;;;;4959424;28;20047;-69
2023/05/21 11:06:07;;;;;;;9.05;8.15;;;25.40;96.70;;;;;;4970470;28;20650;-69
2023/05/21 11:08:37;;;;;;;8.40;7.63;;;25.60;96.70;;;;;;4949527;28;20047;-69
2023/05/21 11:11:06;;;;;;;8.85;7.82;;;25.80;96.70;;;;;;4953428;28;20057;-70
2023/05/21 11:13:50;;;;;;;12.95;8.57;;;25.50;96.70;;;;;;4958799;28;20046;-69
2023/05/21 11:16:24;;;;;;;9.90;8.48;;;25.70;96.70;;;;;;4973870;28;20069;-69
2023/05/21 11:18:59;;;;;;;7.95;7.25;;;26.00;96.70;;;;;;4980529;28;20038;-69
2023/05/21 11:21:34;;;;;;;9.15;8.25;;;26.00;96.70;;;;;;4966959;28;20177;-70
2023/05/21 11:24:06;;;;;;;9.27;8.38;;;26.20;96.70;;;;;;4977144;28;20043;-69
2023/05/21 11:27:03;;;;;;;7.97;7.28;;;26.40;96.70;;;;;;4967727;28;20042;-69
2023/05/21 11:29:43;;;;;;;8.27;7.53;;;26.30;96.70;;;;;;4953573;28;20050;-69
2023/05/21 11:32:14;;;;;;;7.90;7.25;;;26.20;96.70;;;;;;4977342;28;20121;-70
2023/05/21 11:34:47;;;;;;;8.10;7.38;;;25.80;96.70;;;;;;4949906;28;20042;-69
2023/05/21 11:37:29;;;;;;;9.02;7.18;;;25.70;96.70;;;;;;4958434;28;20090;-69
2023/05/21 11:40:15;;;;;;;9.13;8.23;;;25.50;96.70;;;;;;4953959;28;20151;-70
2023/05/21 11:42:48;;;;;;;9.52;8.40;;;25.40;96.70;;;;;;4949284;28;20046;-70
2023/05/21 11:45:18;;;;;;;7.60;6.97;;;25.30;96.70;;;;;;4966221;28;20062;-70
2023/05/21 11:47:48;;;;;;;12.00;7.68;;;25.20;96.70;;;;;;4954747;28;20100;-70
2023/05/21 11:50:17;;;;;;;8.40;7.60;;;25.00;96.70;;;;;;4968003;28;20047;-70
2023/05/21 11:52:48;;;;;;;8.63;7.75;;;24.90;96.70;;;;;;4983016;28;20042;-70
2023/05/21 11:55:21;;;;;;;9.02;7.43;;;24.80;96.70;;;;;;4966339;28;20046;-70
2023/05/21 11:57:53;;;;;;;8.85;7.90;;;24.80;96.70;;;;;;4966660;28;20058;-70
2023/05/21 12:00:21;;;;;;;8.30;7.50;;;24.90;96.70;;;;;;4967494;28;20551;-70
2023/05/21 12:02:51;;;;;;;9.77;7.68;;;25.00;96.70;;;;;;4980436;28;20074;-70
2023/05/21 12:05:20;;;;;;;7.90;7.10;;;25.00;96.70;;;;;;4974091;28;20496;-70
2023/05/21 12:07:50;;;;;;;8.23;7.43;;;25.10;96.70;;;;;;4972841;28;20049;-70
2023/05/21 12:10:22;;;;;;;8.13;7.43;;;25.10;96.70;;;;;;4971456;28;20118;-69
2023/05/21 12:12:51;;;;;;;7.00;6.30;;;25.10;96.70;;;;;;4982409;28;20053;-70
2023/05/21 12:15:26;;;;;;;6.63;6.03;;;24.80;96.70;;;;;;4976031;28;20066;-69
2023/05/21 12:17:55;;;;;;;6.82;5.75;;;24.60;96.70;;;;;;4974683;28;20768;-70
2023/05/21 12:20:26;;;;;;;9.25;6.10;;;24.40;96.70;;;;;;4965867;28;20058;-70
2023/05/21 12:22:58;;;;;;;14.00;7.22;;;24.30;96.70;;;;;;4966666;28;20050;-70
2023/05/21 12:25:28;;;;;;;10.15;7.40;;;24.10;96.70;;;;;;4948471;28;20067;-70
2023/05/21 12:27:57;;;;;;;10.18;7.50;;;23.90;96.70;;;;;;4965732;28;20034;-70
2023/05/21 12:30:25;;;;;;;8.90;6.95;;;23.60;96.70;;;;;;4951358;28;20057;-69
2023/05/21 12:32:58;;;;;;;7.93;6.80;;;23.30;96.70;;;;;;4950568;28;20050;-69
2023/05/21 12:35:26;;;;;;;5.93;5.32;;;23.00;96.70;;;;;;4954380;28;20078;-69
2023/05/21 12:37:55;;;;;;;7.90;5.85;;;22.80;96.70;;;;;;4975435;28;20050;-69
2023/05/21 12:40:36;;;;;;;6.47;5.82;;;22.60;96.70;;;;;;4952334;28;20085;-69
2023/05/21 12:43:06;;;;;;;6.28;5.28;;;22.60;96.70;;;;;;4960437;28;20134;-69
2023/05/21 12:45:38;;;;;;;7.22;6.50;;;22.60;96.70;;;;;;4972048;28;20045;-69
2023/05/21 12:48:12;;;;;;;7.40;6.70;;;22.50;96.70;;;;;;4950258;28;20051;-69
2023/05/21 12:50:42;;;;;;;7.57;6.30;;;22.40;96.70;;;;;;4966139;28;20054;-69
2023/05/21 12:53:10;;;;;;;7.65;6.95;;;22.40;96.70;;;;;;4980959;28;20053;-69
2023/05/21 12:55:41;;;;;;;7.85;6.85;;;22.30;96.70;;;;;;4968566;28;20046;-69
2023/05/21 12:58:13;;;;;;;8.43;7.57;;;22.50;96.70;;;;;;4978542;28;20492;-69
2023/05/21 13:00:42;;;;;;;8.60;7.03;;;22.90;96.70;;;;;;4968441;28;20525;-70
2023/05/21 13:03:11;;;;;;;8.02;6.95;;;23.30;96.70;;;;;;4965627;28;20043;-69
2023/05/21 13:05:40;;;;;;;7.88;6.50;;;23.70;96.70;;;;;;4956265;28;20050;-69
2023/05/21 13:08:10;;;;;;;8.75;7.13;;;24.10;96.70;;;;;;4941305;28;20160;-68
2023/05/21 13:10:40;;;;;;;7.10;6.38;;;24.60;96.70;;;;;;4973565;28;20047;-68
2023/05/21 13:13:08;;;;;;;7.90;6.85;;;25.20;96.70;;;;;;4971959;28;20125;-68
2023/05/21 13:15:37;;;;;;;6.95;6.35;;;25.70;96.70;;;;;;4973418;28;20054;-68
2023/05/21 13:18:06;;;;;;;7.57;6.70;;;26.20;96.70;;;;;;4981253;28;20054;-68
2023/05/21 13:20:35;;;;;;;8.00;7.20;;;26.70;96.70;;;;;;4967164;28;20065;-68
2023/05/21 13:23:04;;;;;;;8.25;7.45;;;27.00;96.70;;;;;;4977155;28;20046;-68
2023/05/21 13:25:36;;;;;;;7.97;6.75;;;27.30;96.70;;;;;;4951002;28;20063;-68
2023/05/21 13:28:09;;;;;;;7.82;7.13;;;27.50;96.70;;;;;;4965060;28;20054;-68
2023/05/21 13:30:37;;;;;;;7.25;6.55;;;27.60;96.70;;;;;;4967729;28;20069;-68
2023/05/21 13:33:06;;;;;;;8.18;7.43;;;27.80;96.70;;;;;;4965066;28;20050;-68
2023/05/21 13:35:35;;;;;;;8.45;7.63;;;27.80;96.70;;;;;;4965127;28;20413;-68
2023/05/21 13:38:03;;;;;;;8.00;7.20;;;27.20;96.70;;;;;;4965442;28;20759;-68
2023/05/21 13:40:32;;;;;;;7.80;7.00;;;26.50;96.70;;;;;;4968127;28;20058;-68
2023/05/21 13:43:05;;;;;;;9.27;7.70;;;26.10;96.70;;;;;;4963747;28;20133;-68
2023/05/21 13:45:34;;;;;;;9.02;8.23;;;25.90;96.70;;;;;;4973462;28;20063;-68
2023/05/21 13:48:03;;;;;;;9.20;8.40;;;25.80;96.70;;;;;;4973565;28;20055;-68
2023/05/21 13:50:32;;;;;;;9.07;7.72;;;25.60;96.70;;;;;;4952297;28;20093;-68
2023/05/21 13:53:00;;;;;;;8.45;7.68;;;25.60;96.70;;;;;;4964738;28;20050;-68
2023/05/21 13:55:29;;;;;;;9.07;8.23;;;25.70;96.70;;;;;;4963543;28;20130;-68
2023/05/21 13:57:57;;;;;;;11.75;8.70;;;25.80;96.70;;;;;;4982433;28;20046;-68
2023/05/21 14:00:27;;;;;;;8.55;7.75;;;26.70;96.70;;;;;;4963669;28;20658;-68
2023/05/21 14:02:56;;;;;;;9.10;8.05;;;26.70;96.70;;;;;;4982318;28;20065;-67
2023/05/21 14:05:25;;;;;;;8.85;8.07;;;26.40;96.70;;;;;;4967005;28;20366;-68
2023/05/21 14:07:54;;;;;;;8.80;7.95;;;26.80;96.70;;;;;;4979945;28;20077;-68
2023/05/21 14:10:22;;;;;;;8.55;7.85;;;27.70;96.70;;;;;;4964381;28;20544;-68
2023/05/21 14:12:51;;;;;;;9.93;7.50;;;28.40;96.70;;;;;;4964460;28;20501;-68
2023/05/21 14:15:22;;;;;;;8.75;7.95;;;29.10;96.70;;;;;;4965128;28;20047;-68
2023/05/21 14:17:52;;;;;;;8.65;7.88;;;29.40;96.70;;;;;;4965127;28;20039;-68
2023/05/21 14:20:21;;;;;;;8.48;7.43;;;29.20;96.70;;;;;;4964901;28;20054;-68
2023/05/21 14:22:49;;;;;;;9.40;8.50;;;29.50;96.70;;;;;;4981702;28;20149;-68
2023/05/21 14:25:18;;;;;;;9.10;8.20;;;29.30;96.70;;;;;;4973542;28;20054;-69
2023/05/21 14:27:46;;;;;;;8.52;7.72;;;29.40;96.70;;;;;;4962466;28;20054;-68
2023/05/21 14:30:15;;;;;;;8.43;7.63;;;29.10;96.70;;;;;;4951949;28;20050;-68
2023/05/21 14:32:43;;;;;;;8.05;7.25;;;28.90;96.70;;;;;;4972618;28;20768;-68
2023/05/21 14:35:13;;;;;;;8.85;7.50;;;29.70;96.70;;;;;;4980160;28;20046;-68
2023/05/21 14:37:42;;;;;;;9.27;8.43;;;30.50;96.70;;;;;;4954138;28;20505;-68
2023/05/21 14:40:12;;;;;;;8.55;7.68;;;30.70;96.70;;;;;;4964976;28;20088;-69
2023/05/21 14:42:40;;;;;;;7.50;6.82;;;30.90;96.70;;;;;;4952859;28;20042;-69
2023/05/21 14:45:09;;;;;;;8.55;7.53;;;31.30;96.70;;;;;;4973492;28;20105;-69
2023/05/21 14:47:47;;;;;;;8.20;7.40;;;31.50;96.70;;;;;;4964015;28;20126;-69
2023/05/21 14:50:17;;;;;;;8.07;7.38;;;31.50;96.70;;;;;;4969044;28;20042;-69
2023/05/21 14:52:46;;;;;;;8.13;7.13;;;31.70;96.70;;;;;;4981751;28;20714;-69
2023/05/21 14:55:17;;;;;;;12.60;10.65;;;31.30;96.70;;;;;;4939355;28;20551;-69
2023/05/21 14:57:45;;;;;;;8.93;8.13;;;29.80;96.70;;;;;;4932969;28;20149;-69
2023/05/21 15:00:14;;;;;;;13.20;12.00;;;29.60;96.70;;;;;;4948847;28;20046;-68
2023/05/21 15:02:43;;;;;;;18.30;16.50;;;29.50;96.70;;;;;;4965542;28;20137;-68
2023/05/21 15:05:12;;;;;;;9.07;8.27;;;29.20;96.70;;;;;;4964030;28;20042;-68
2023/05/21 15:07:42;;;;;;;12.93;11.70;;;29.30;96.70;;;;;;4976946;28;20050;-68
2023/05/21 15:10:11;;;;;;;9.45;7.88;;;29.20;96.70;;;;;;4969299;28;20047;-68
2023/05/21 15:12:40;;;;;;;8.90;8.02;;;29.70;96.70;;;;;;4972697;28;20050;-68
2023/05/21 15:15:10;;;;;;;9.13;7.25;;;28.70;96.70;;;;;;4964909;28;20049;-68
2023/05/21 15:17:39;;;;;;;9.63;8.15;;;27.60;96.70;;;;;;4964399;28;20045;-68
2023/05/21 15:20:09;;;;;;;10.32;8.82;;;27.00;96.70;;;;;;4971354;28;20069;-68
2023/05/21 15:22:37;;;;;;;13.27;11.85;;;26.30;96.70;;;;;;4967706;28;20046;-68
2023/05/21 15:25:08;;;;;;;9.93;8.98;;;25.90;96.70;;;;;;4965977;28;20050;-68
2023/05/21 15:27:37;;;;;;;8.00;7.20;;;25.50;96.70;;;;;;4965774;28;20408;-68
2023/05/21 15:30:06;;;;;;;9.48;8.45;;;26.00;96.70;;;;;;4952331;28;20114;-69
2023/05/21 15:32:35;;;;;;;16.77;15.07;;;27.50;96.70;;;;;;4968839;28;20046;-69
2023/05/21 15:35:05;;;;;;;14.65;13.23;;;27.30;96.70;;;;;;4963331;28;20154;-69
2023/05/21 15:37:34;;;;;;;12.15;11.05;;;27.30;96.70;;;;;;4966667;28;20046;-70
2023/05/21 15:40:03;;;;;;;9.60;7.78;;;27.90;96.70;;;;;;4966497;28;20493;-68
2023/05/21 15:42:33;;;;;;;9.48;8.57;;;28.00;96.70;;;;;;4950368;28;20054;-69
2023/05/21 15:45:03;;;;;;;9.30;8.40;;;29.00;96.70;;;;;;4969163;28;20465;-69
2023/05/21 15:47:33;;;;;;;9.82;8.40;;;29.20;96.70;;;;;;4965136;28;20049;-70
2023/05/21 15:50:01;;;;;;;9.40;7.55;;;28.50;96.70;;;;;;4951091;28;20130;-70
2023/05/21 15:52:30;;;;;;;8.68;7.82;;;27.60;96.70;;;;;;4975572;28;21252;-69
2023/05/21 15:54:59;;;;;;;8.43;7.55;;;28.50;96.70;;;;;;4971207;28;20047;-70
2023/05/21 15:57:27;;;;;;;9.25;8.10;;;28.90;96.70;;;;;;4968868;28;20440;-69
2023/05/21 15:59:58;;;;;;;9.82;7.60;;;28.90;96.70;;;;;;4958244;28;20066;-70